Item Display Status Serial CT Sensor

Mooring Depth: 1 m

 

Deployed Sensor

  • Serial Number: 10448
  • NDBC Property Number: 36457
  • Start Date: 10/24/2013 (12:44:16 Z)
  • End Date: 4/18/2015 (12:25:00 Z)
Water Temperature [°C]     6 entries per hour
Showing data from 4/18/2015 (12:20:00 Z) to 4/17/2015 (00:00:01 Z)
Previous Next [ Day | 3-Days | 7-Days ]
First Last
Prev [ Day | 3-Days | 7-Days ] Next
First Last

Start Time:     :
End Time:     :     
Time (in GMT) :00 :50 :40 :30 :20 :10
Previous Next [ Day | 3-Days | 7-Days ]
First Last
Prev [ Day | 3-Days | 7-Days ] Next
First Last


123 => good data
MM => data is determined as missing
-- => data not received/configured
Back to Top Back to Top
4/18/2015 13:00 to 12:10 -- -- -- -- 27.637 27.645
4/18/2015 12:00 to 11:10 27.647 27.648 27.650 27.651 27.649 27.648
4/18/2015 11:00 to 10:10 27.647 27.650 27.651 27.654 27.651 27.651
4/18/2015 10:00 to 9:10 27.653 27.655 27.659 27.663 27.660 27.662
4/18/2015 09:00 to 8:10 27.661 27.665 27.662 27.662 27.665 27.667
4/18/2015 08:00 to 7:10 27.665 27.666 27.662 27.670 27.671 27.673
4/18/2015 07:00 to 6:10 27.671 27.669 27.674 27.679 27.684 27.690
4/18/2015 06:00 to 5:10 27.691 27.696 27.700 27.698 27.706 27.710
4/18/2015 05:00 to 4:10 27.712 27.718 27.724 27.728 27.728 27.734
4/18/2015 04:00 to 3:10 27.731 27.732 27.729 27.733 27.739 27.741
4/18/2015 03:00 to 2:10 27.740 27.742 27.742 27.746 27.744 27.746
4/18/2015 02:00 to 1:10 27.747 27.755 27.760 27.764 27.767 27.775
4/18/2015 01:00 to 0:10 27.780 27.780 27.784 27.788 27.794 27.796
4/18/2015 00:00 to 23:10 27.801 27.804 27.805 27.809 27.813 27.816
4/17/2015 23:00 to 22:10 27.819 27.818 27.823 27.821 27.821 --
4/17/2015 22:00 to 21:10 27.825 27.826 27.819 27.816 27.819 27.829
4/17/2015 21:00 to 20:10 27.822 27.825 27.824 27.823 27.828 27.831
4/17/2015 20:00 to 19:10 27.832 27.837 27.844 27.844 27.835 27.838
4/17/2015 19:00 to 18:10 27.833 27.828 27.830 27.833 27.840 27.838
4/17/2015 18:00 to 17:10 27.850 27.852 27.848 27.840 27.828 27.832
4/17/2015 17:00 to 16:10 27.819 27.829 27.842 27.832 27.819 27.807
4/17/2015 16:00 to 15:10 27.802 27.784 27.779 27.780 27.767 27.759
4/17/2015 15:00 to 14:10 27.772 27.788 27.806 27.830 27.819 27.812
4/17/2015 14:00 to 13:10 27.824 27.829 27.827 27.822 27.820 27.820
4/17/2015 13:00 to 12:10 27.841 27.869 27.874 27.877 27.879 27.866
4/17/2015 12:00 to 11:10 27.877 27.884 27.901 27.912 27.923 27.939
4/17/2015 11:00 to 10:10 27.942 27.958 27.968 27.969 27.968 27.975
4/17/2015 10:00 to 9:10 27.973 27.982 27.996 28.003 28.008 28.003
4/17/2015 09:00 to 8:10 27.994 27.990 27.992 27.991 27.990 27.990
4/17/2015 08:00 to 7:10 27.980 27.967 27.965 27.963 27.970 27.985
4/17/2015 07:00 to 6:10 27.989 27.991 28.000 28.012 28.020 28.020
4/17/2015 06:00 to 5:10 -- -- -- -- -- --
4/17/2015 05:00 to 4:10 28.142 28.140 28.139 28.133 28.140 28.147
4/17/2015 04:00 to 3:10 28.132 28.126 28.105 28.109 28.098 28.106
4/17/2015 03:00 to 2:10 28.128 28.139 28.165 28.161 28.152 28.158
4/17/2015 02:00 to 1:10 28.147 28.153 28.148 28.154 28.177 28.190
4/17/2015 01:00 to 0:10 28.206 28.240 28.268 28.264 28.287 28.293

 

 

 

Conductivity [S/m]     6 entries per hour
Showing data from 12/14/2014 (06:00:00 Z) to 12/13/2014 (00:00:01 Z)
Previous Next [ Day | 3-Days | 7-Days ]
First Last
Prev [ Day | 3-Days | 7-Days ] Next
First Last

Start Time:     :
End Time:     :     
Time (in GMT) :00 :50 :40 :30 :20 :10
Previous Next [ Day | 3-Days | 7-Days ]
First Last
Prev [ Day | 3-Days | 7-Days ] Next
First Last


123 => good data
MM => data is determined as missing
-- => data not received/configured
Back to Top Back to Top
12/14/2014 06:00 to 5:10 5.13475 5.13632 5.13498 5.13472 5.13433 5.13441
12/14/2014 05:00 to 4:10 5.13482 5.13533 5.13594 5.13518 5.13552 5.13540
12/14/2014 04:00 to 3:10 5.13563 5.13633 5.13816 5.13886 5.13804 5.13874
12/14/2014 03:00 to 2:10 5.13919 5.14029 5.14085 5.14034 5.14222 5.14242
12/14/2014 02:00 to 1:10 5.14377 5.14459 5.14498 5.14469 5.14210 5.14395
12/14/2014 01:00 to 0:10 5.14373 5.14430 5.14492 5.14840 5.14890 5.15033
12/14/2014 00:00 to 23:10 5.15192 5.15094 5.15324 5.15499 5.15632 5.15636
12/13/2014 23:00 to 22:10 5.15801 5.15884 5.15534 5.15732 5.15736 5.16264
12/13/2014 22:00 to 21:10 5.16292 5.16325 5.15617 5.15564 5.15643 5.15835
12/13/2014 21:00 to 20:10 5.15903 5.16023 5.16310 5.16425 5.17283 5.17663
12/13/2014 20:00 to 19:10 5.17914 5.18060 5.18326 5.18421 5.17043 5.17177
12/13/2014 19:00 to 18:10 5.16819 5.16488 5.16149 5.16218 5.16161 5.15796
12/13/2014 18:00 to 17:10 5.15787 5.15785 5.15565 5.15881 5.15178 5.15077
12/13/2014 17:00 to 16:10 5.14990 5.14641 5.14444 5.14308 5.14264 5.13847
12/13/2014 16:00 to 15:10 5.13340 5.13393 5.13125 5.12933 5.12720 5.12804
12/13/2014 15:00 to 14:10 5.12774 5.12595 5.12583 5.12488 5.12438 5.12375
12/13/2014 14:00 to 13:10 5.12360 5.12312 5.12317 5.12303 5.12332 5.12334
12/13/2014 13:00 to 12:10 5.12356 5.12353 5.12403 5.12408 5.12423 5.12494
12/13/2014 12:00 to 11:10 5.12574 5.12648 5.12712 5.12763 5.12800 5.12810
12/13/2014 11:00 to 10:10 5.12811 5.12784 5.12770 5.12861 5.12921 5.13025
12/13/2014 10:00 to 9:10 5.13136 5.13163 5.13221 5.13178 5.12957 5.13062
12/13/2014 09:00 to 8:10 5.13108 5.13067 5.13112 5.13137 5.13237 5.13351
12/13/2014 08:00 to 7:10 5.13306 5.13297 5.13143 5.13175 5.13347 5.13374
12/13/2014 07:00 to 6:10 5.13204 5.13218 5.13371 5.13538 5.13642 5.13674
12/13/2014 06:00 to 5:10 5.13639 5.13755 5.13670 5.13724 5.13739 5.13835
12/13/2014 05:00 to 4:10 5.13956 5.14130 5.14225 5.14316 5.14247 5.14364
12/13/2014 04:00 to 3:10 5.14048 5.14455 5.14376 5.14537 5.14506 5.14233
12/13/2014 03:00 to 2:10 5.14216 5.14104 5.14079 5.14165 5.14285 5.14388
12/13/2014 02:00 to 1:10 5.14245 5.14339 5.14567 5.14578 5.14578 5.14779
12/13/2014 01:00 to 0:10 5.14997 5.15087 5.15288 5.15545 5.15595 5.15760

 

 

 

Salinity [psu]     6 entries per hour
Showing data from 12/14/2014 (06:00:00 Z) to 12/13/2014 (00:00:01 Z)
Previous Next [ Day | 3-Days | 7-Days ]
First Last
Prev [ Day | 3-Days | 7-Days ] Next
First Last

Start Time:     :
End Time:     :     
Time (in GMT) :00 :50 :40 :30 :20 :10
Previous Next [ Day | 3-Days | 7-Days ]
First Last
Prev [ Day | 3-Days | 7-Days ] Next
First Last


123 => good data
MM => data is determined as missing
-- => data not received/configured
Back to Top Back to Top
12/14/2014 06:00 to 5:10 34.83 34.83 34.83 34.83 34.83 34.83
12/14/2014 05:00 to 4:10 34.83 34.83 34.83 34.83 34.83 34.83
12/14/2014 04:00 to 3:10 34.83 34.83 34.83 34.83 34.83 34.83
12/14/2014 03:00 to 2:10 34.83 34.83 34.83 34.83 34.83 34.82
12/14/2014 02:00 to 1:10 34.82 34.82 34.82 34.82 34.83 34.82
12/14/2014 01:00 to 0:10 34.82 34.82 34.82 34.82 34.82 34.82
12/14/2014 00:00 to 23:10 34.82 34.82 34.82 34.82 34.82 34.82
12/13/2014 23:00 to 22:10 34.82 34.82 34.82 34.82 34.82 34.82
12/13/2014 22:00 to 21:10 34.82 34.83 34.82 34.82 34.82 34.82
12/13/2014 21:00 to 20:10 34.82 34.82 34.82 34.82 34.81 34.81
12/13/2014 20:00 to 19:10 34.82 34.82 34.82 34.82 34.83 34.83
12/13/2014 19:00 to 18:10 34.84 34.83 34.83 34.83 34.83 34.83
12/13/2014 18:00 to 17:10 34.83 34.84 34.83 34.82 34.83 34.83
12/13/2014 17:00 to 16:10 34.83 34.82 34.83 34.83 34.83 34.83
12/13/2014 16:00 to 15:10 34.83 34.83 34.83 34.83 34.83 34.83
12/13/2014 15:00 to 14:10 34.83 34.83 34.83 34.83 34.83 34.83
12/13/2014 14:00 to 13:10 34.83 34.83 34.83 34.83 34.83 34.83
12/13/2014 13:00 to 12:10 34.83 34.83 34.83 34.82 34.82 34.82
12/13/2014 12:00 to 11:10 34.82 34.82 34.82 34.82 34.82 34.82
12/13/2014 11:00 to 10:10 34.82 34.82 34.82 34.82 34.82 34.82
12/13/2014 10:00 to 9:10 34.82 34.82 34.81 34.81 34.82 34.82
12/13/2014 09:00 to 8:10 34.82 34.82 34.82 34.82 34.82 34.82
12/13/2014 08:00 to 7:10 34.82 34.82 34.82 34.82 34.82 34.81
12/13/2014 07:00 to 6:10 34.82 34.82 34.82 34.82 34.82 34.81
12/13/2014 06:00 to 5:10 34.81 34.81 34.81 34.82 34.82 34.82
12/13/2014 05:00 to 4:10 34.81 34.81 34.81 34.81 34.81 34.81
12/13/2014 04:00 to 3:10 34.82 34.81 34.81 34.81 34.81 34.81
12/13/2014 03:00 to 2:10 34.82 34.81 34.82 34.82 34.81 34.81
12/13/2014 02:00 to 1:10 34.82 34.81 34.81 34.81 34.82 34.81
12/13/2014 01:00 to 0:10 34.81 34.81 34.81 34.81 34.81 34.81